sensor_id;sensor_type;location;lat;lon;timestamp;P1;durP1;ratioP1;P2;durP2;ratioP2
45684;SDS011;46836;48.388;16.210;2023-02-11T00:04:05;28.77;;;14.50;;
45684;SDS011;46836;48.388;16.210;2023-02-11T00:06:33;28.35;;;13.50;;
45684;SDS011;46836;48.388;16.210;2023-02-11T00:09:01;26.67;;;14.60;;
45684;SDS011;46836;48.388;16.210;2023-02-11T00:11:29;30.55;;;15.88;;
45684;SDS011;46836;48.388;16.210;2023-02-11T00:13:57;35.55;;;15.98;;
45684;SDS011;46836;48.388;16.210;2023-02-11T00:16:26;30.23;;;14.60;;
45684;SDS011;46836;48.388;16.210;2023-02-11T00:18:55;29.35;;;14.40;;
45684;SDS011;46836;48.388;16.210;2023-02-11T00:21:24;28.27;;;14.32;;
45684;SDS011;46836;48.388;16.210;2023-02-11T00:23:52;26.67;;;13.25;;
45684;SDS011;46836;48.388;16.210;2023-02-11T00:26:23;30.23;;;13.80;;
45684;SDS011;46836;48.388;16.210;2023-02-11T00:28:53;33.60;;;16.10;;
45684;SDS011;46836;48.388;16.210;2023-02-11T00:31:21;28.58;;;13.50;;
45684;SDS011;46836;48.388;16.210;2023-02-11T00:33:49;36.15;;;15.27;;
45684;SDS011;46836;48.388;16.210;2023-02-11T00:36:17;25.27;;;13.93;;
45684;SDS011;46836;48.388;16.210;2023-02-11T00:38:49;33.92;;;14.52;;
45684;SDS011;46836;48.388;16.210;2023-02-11T00:41:19;27.30;;;14.55;;
45684;SDS011;46836;48.388;16.210;2023-02-11T00:43:47;30.00;;;16.27;;
45684;SDS011;46836;48.388;16.210;2023-02-11T00:46:15;31.38;;;15.57;;
45684;SDS011;46836;48.388;16.210;2023-02-11T00:48:42;34.40;;;15.50;;
45684;SDS011;46836;48.388;16.210;2023-02-11T00:51:10;28.88;;;15.05;;
45684;SDS011;46836;48.388;16.210;2023-02-11T00:53:38;27.20;;;14.38;;
45684;SDS011;46836;48.388;16.210;2023-02-11T00:56:05;30.63;;;13.15;;
45684;SDS011;46836;48.388;16.210;2023-02-11T00:58:33;29.65;;;14.38;;
45684;SDS011;46836;48.388;16.210;2023-02-11T01:01:00;28.98;;;14.52;;
45684;SDS011;46836;48.388;16.210;2023-02-11T01:03:27;27.65;;;14.48;;
45684;SDS011;46836;48.388;16.210;2023-02-11T01:05:55;25.80;;;13.23;;
45684;SDS011;46836;48.388;16.210;2023-02-11T01:08:22;30.63;;;15.25;;
45684;SDS011;46836;48.388;16.210;2023-02-11T01:10:56;33.67;;;15.10;;
45684;SDS011;46836;48.388;16.210;2023-02-11T01:13:26;29.02;;;15.13;;
45684;SDS011;46836;48.388;16.210;2023-02-11T01:15:54;29.58;;;14.05;;
45684;SDS011;46836;48.388;16.210;2023-02-11T01:18:22;26.33;;;14.65;;
45684;SDS011;46836;48.388;16.210;2023-02-11T01:20:50;30.90;;;14.80;;
45684;SDS011;46836;48.388;16.210;2023-02-11T01:23:18;25.60;;;14.65;;
45684;SDS011;46836;48.388;16.210;2023-02-11T01:25:46;31.17;;;15.15;;
45684;SDS011;46836;48.388;16.210;2023-02-11T01:28:18;29.10;;;13.95;;
45684;SDS011;46836;48.388;16.210;2023-02-11T01:30:47;32.75;;;15.88;;
45684;SDS011;46836;48.388;16.210;2023-02-11T01:33:16;31.20;;;15.30;;
45684;SDS011;46836;48.388;16.210;2023-02-11T01:35:43;31.67;;;14.73;;
45684;SDS011;46836;48.388;16.210;2023-02-11T01:38:14;34.40;;;15.50;;
45684;SDS011;46836;48.388;16.210;2023-02-11T01:40:47;30.55;;;14.30;;
45684;SDS011;46836;48.388;16.210;2023-02-11T01:43:15;30.08;;;14.60;;
45684;SDS011;46836;48.388;16.210;2023-02-11T01:48:12;30.52;;;15.55;;
45684;SDS011;46836;48.388;16.210;2023-02-11T01:50:47;34.13;;;14.35;;
45684;SDS011;46836;48.388;16.210;2023-02-11T01:53:18;26.63;;;13.02;;
45684;SDS011;46836;48.388;16.210;2023-02-11T01:56:05;32.10;;;13.50;;
45684;SDS011;46836;48.388;16.210;2023-02-11T01:58:52;29.58;;;13.75;;
45684;SDS011;46836;48.388;16.210;2023-02-11T02:01:28;29.77;;;14.68;;
45684;SDS011;46836;48.388;16.210;2023-02-11T02:03:59;30.08;;;15.57;;
45684;SDS011;46836;48.388;16.210;2023-02-11T02:06:36;25.77;;;13.82;;
45684;SDS011;46836;48.388;16.210;2023-02-11T02:09:16;29.45;;;14.57;;
45684;SDS011;46836;48.388;16.210;2023-02-11T02:11:48;32.90;;;15.95;;
45684;SDS011;46836;48.388;16.210;2023-02-11T02:14:16;30.77;;;15.85;;
45684;SDS011;46836;48.388;16.210;2023-02-11T02:16:44;32.08;;;15.07;;
45684;SDS011;46836;48.388;16.210;2023-02-11T02:27:28;26.92;;;13.77;;
45684;SDS011;46836;48.388;16.210;2023-02-11T02:33:18;30.45;;;14.85;;
45684;SDS011;46836;48.388;16.210;2023-02-11T02:38:31;30.08;;;15.18;;
45684;SDS011;46836;48.388;16.210;2023-02-11T02:43:35;28.27;;;15.93;;
45684;SDS011;46836;48.388;16.210;2023-02-11T02:46:18;30.88;;;15.35;;
45684;SDS011;46836;48.388;16.210;2023-02-11T02:48:48;32.85;;;15.45;;
45684;SDS011;46836;48.388;16.210;2023-02-11T02:59:09;34.95;;;15.60;;
45684;SDS011;46836;48.388;16.210;2023-02-11T03:10:32;31.38;;;15.90;;
45684;SDS011;46836;48.388;16.210;2023-02-11T03:13:02;34.53;;;16.55;;
45684;SDS011;46836;48.388;16.210;2023-02-11T03:15:31;34.70;;;16.00;;
45684;SDS011;46836;48.388;16.210;2023-02-11T03:18:03;24.88;;;13.57;;
45684;SDS011;46836;48.388;16.210;2023-02-11T03:20:35;30.27;;;15.40;;
45684;SDS011;46836;48.388;16.210;2023-02-11T03:25:43;33.63;;;16.60;;
45684;SDS011;46836;48.388;16.210;2023-02-11T03:30:54;25.48;;;14.52;;
45684;SDS011;46836;48.388;16.210;2023-02-11T03:33:46;35.75;;;17.73;;
45684;SDS011;46836;48.388;16.210;2023-02-11T03:36:27;36.45;;;17.38;;
45684;SDS011;46836;48.388;16.210;2023-02-11T03:39:01;31.98;;;15.40;;
45684;SDS011;46836;48.388;16.210;2023-02-11T03:41:30;30.65;;;14.65;;
45684;SDS011;46836;48.388;16.210;2023-02-11T03:44:01;40.13;;;15.90;;
45684;SDS011;46836;48.388;16.210;2023-02-11T03:46:38;43.05;;;18.20;;
45684;SDS011;46836;48.388;16.210;2023-02-11T03:49:11;36.30;;;15.45;;
45684;SDS011;46836;48.388;16.210;2023-02-11T03:51:40;32.92;;;16.92;;
45684;SDS011;46836;48.388;16.210;2023-02-11T03:54:09;30.73;;;15.73;;
45684;SDS011;46836;48.388;16.210;2023-02-11T03:56:50;35.63;;;15.93;;
45684;SDS011;46836;48.388;16.210;2023-02-11T03:59:19;33.85;;;16.33;;
45684;SDS011;46836;48.388;16.210;2023-02-11T04:01:46;36.00;;;17.70;;
45684;SDS011;46836;48.388;16.210;2023-02-11T04:04:14;35.85;;;16.10;;
45684;SDS011;46836;48.388;16.210;2023-02-11T04:06:41;31.15;;;16.92;;
45684;SDS011;46836;48.388;16.210;2023-02-11T04:09:09;34.28;;;16.77;;
45684;SDS011;46836;48.388;16.210;2023-02-11T04:11:37;43.10;;;17.50;;
45684;SDS011;46836;48.388;16.210;2023-02-11T04:14:04;30.65;;;16.50;;
45684;SDS011;46836;48.388;16.210;2023-02-11T04:16:31;36.17;;;18.38;;
45684;SDS011;46836;48.388;16.210;2023-02-11T04:18:58;35.25;;;18.98;;
45684;SDS011;46836;48.388;16.210;2023-02-11T04:21:26;35.05;;;17.30;;
45684;SDS011;46836;48.388;16.210;2023-02-11T04:23:53;34.63;;;16.98;;
45684;SDS011;46836;48.388;16.210;2023-02-11T04:26:21;36.40;;;19.25;;
45684;SDS011;46836;48.388;16.210;2023-02-11T04:28:48;33.72;;;17.40;;
45684;SDS011;46836;48.388;16.210;2023-02-11T04:31:15;27.90;;;16.42;;
45684;SDS011;46836;48.388;16.210;2023-02-11T04:33:42;31.23;;;16.25;;
45684;SDS011;46836;48.388;16.210;2023-02-11T04:36:09;35.78;;;17.67;;
45684;SDS011;46836;48.388;16.210;2023-02-11T04:38:36;33.15;;;18.25;;
45684;SDS011;46836;48.388;16.210;2023-02-11T04:41:03;42.95;;;19.38;;
45684;SDS011;46836;48.388;16.210;2023-02-11T04:43:30;35.67;;;17.73;;
45684;SDS011;46836;48.388;16.210;2023-02-11T04:45:57;38.05;;;18.15;;
45684;SDS011;46836;48.388;16.210;2023-02-11T04:48:25;32.38;;;17.95;;
45684;SDS011;46836;48.388;16.210;2023-02-11T04:50:52;34.22;;;19.40;;
45684;SDS011;46836;48.388;16.210;2023-02-11T04:53:19;29.52;;;15.32;;
45684;SDS011;46836;48.388;16.210;2023-02-11T04:55:49;40.03;;;18.05;;
45684;SDS011;46836;48.388;16.210;2023-02-11T04:58:17;37.08;;;18.73;;
45684;SDS011;46836;48.388;16.210;2023-02-11T05:00:45;32.42;;;17.90;;
45684;SDS011;46836;48.388;16.210;2023-02-11T05:03:13;38.08;;;17.92;;
45684;SDS011;46836;48.388;16.210;2023-02-11T05:05:40;36.22;;;18.40;;
45684;SDS011;46836;48.388;16.210;2023-02-11T05:08:08;34.17;;;18.00;;
45684;SDS011;46836;48.388;16.210;2023-02-11T05:10:36;33.35;;;17.05;;
45684;SDS011;46836;48.388;16.210;2023-02-11T05:13:03;39.15;;;17.88;;
45684;SDS011;46836;48.388;16.210;2023-02-11T05:15:30;40.70;;;17.30;;
45684;SDS011;46836;48.388;16.210;2023-02-11T05:17:57;31.40;;;17.88;;
45684;SDS011;46836;48.388;16.210;2023-02-11T05:20:24;40.42;;;17.98;;
45684;SDS011;46836;48.388;16.210;2023-02-11T05:22:51;33.22;;;17.65;;
45684;SDS011;46836;48.388;16.210;2023-02-11T05:25:19;36.67;;;17.80;;
45684;SDS011;46836;48.388;16.210;2023-02-11T05:27:46;32.97;;;17.20;;
45684;SDS011;46836;48.388;16.210;2023-02-11T05:30:13;30.30;;;16.65;;
45684;SDS011;46836;48.388;16.210;2023-02-11T05:32:40;33.40;;;16.33;;
45684;SDS011;46836;48.388;16.210;2023-02-11T05:35:07;32.53;;;16.85;;
45684;SDS011;46836;48.388;16.210;2023-02-11T05:37:35;36.72;;;17.48;;
45684;SDS011;46836;48.388;16.210;2023-02-11T05:40:02;30.73;;;17.02;;
45684;SDS011;46836;48.388;16.210;2023-02-11T05:42:30;34.33;;;17.33;;
45684;SDS011;46836;48.388;16.210;2023-02-11T05:44:57;30.40;;;17.17;;
45684;SDS011;46836;48.388;16.210;2023-02-11T05:47:24;36.00;;;17.17;;
45684;SDS011;46836;48.388;16.210;2023-02-11T05:49:51;35.20;;;17.55;;
45684;SDS011;46836;48.388;16.210;2023-02-11T05:52:21;31.58;;;16.40;;
45684;SDS011;46836;48.388;16.210;2023-02-11T05:54:49;35.30;;;19.10;;
45684;SDS011;46836;48.388;16.210;2023-02-11T05:57:16;32.80;;;17.58;;
45684;SDS011;46836;48.388;16.210;2023-02-11T05:59:43;31.55;;;19.65;;
45684;SDS011;46836;48.388;16.210;2023-02-11T06:02:10;38.10;;;17.60;;
45684;SDS011;46836;48.388;16.210;2023-02-11T06:04:37;36.35;;;17.73;;
45684;SDS011;46836;48.388;16.210;2023-02-11T06:07:04;36.90;;;18.55;;
45684;SDS011;46836;48.388;16.210;2023-02-11T06:09:32;37.60;;;18.05;;
45684;SDS011;46836;48.388;16.210;2023-02-11T06:11:59;39.28;;;18.05;;
45684;SDS011;46836;48.388;16.210;2023-02-11T06:14:26;36.75;;;19.08;;
45684;SDS011;46836;48.388;16.210;2023-02-11T06:16:53;40.72;;;19.65;;
45684;SDS011;46836;48.388;16.210;2023-02-11T06:19:20;34.58;;;17.98;;
45684;SDS011;46836;48.388;16.210;2023-02-11T06:21:47;33.00;;;19.35;;
45684;SDS011;46836;48.388;16.210;2023-02-11T06:24:14;38.60;;;20.25;;
45684;SDS011;46836;48.388;16.210;2023-02-11T06:26:49;42.55;;;20.27;;
45684;SDS011;46836;48.388;16.210;2023-02-11T06:29:16;38.85;;;19.00;;
45684;SDS011;46836;48.388;16.210;2023-02-11T06:31:44;37.03;;;18.27;;
45684;SDS011;46836;48.388;16.210;2023-02-11T06:34:11;38.70;;;18.85;;
45684;SDS011;46836;48.388;16.210;2023-02-11T06:36:38;35.42;;;18.67;;
45684;SDS011;46836;48.388;16.210;2023-02-11T06:39:06;36.88;;;18.20;;
45684;SDS011;46836;48.388;16.210;2023-02-11T06:41:33;36.90;;;18.00;;
45684;SDS011;46836;48.388;16.210;2023-02-11T06:44:00;36.13;;;17.95;;
45684;SDS011;46836;48.388;16.210;2023-02-11T06:46:27;41.10;;;18.52;;
45684;SDS011;46836;48.388;16.210;2023-02-11T06:48:54;38.05;;;18.70;;
45684;SDS011;46836;48.388;16.210;2023-02-11T06:51:21;31.30;;;17.17;;
45684;SDS011;46836;48.388;16.210;2023-02-11T06:53:49;38.25;;;17.90;;
45684;SDS011;46836;48.388;16.210;2023-02-11T06:56:17;39.50;;;18.65;;
45684;SDS011;46836;48.388;16.210;2023-02-11T06:58:46;33.78;;;18.33;;
45684;SDS011;46836;48.388;16.210;2023-02-11T07:01:14;32.53;;;18.55;;
45684;SDS011;46836;48.388;16.210;2023-02-11T07:03:42;32.03;;;17.92;;
45684;SDS011;46836;48.388;16.210;2023-02-11T07:06:12;33.88;;;19.10;;
45684;SDS011;46836;48.388;16.210;2023-02-11T07:08:41;34.97;;;17.90;;
45684;SDS011;46836;48.388;16.210;2023-02-11T07:11:12;29.20;;;17.17;;
45684;SDS011;46836;48.388;16.210;2023-02-11T07:13:42;33.33;;;18.38;;
45684;SDS011;46836;48.388;16.210;2023-02-11T07:16:10;38.45;;;19.75;;
45684;SDS011;46836;48.388;16.210;2023-02-11T07:18:40;34.50;;;17.85;;
45684;SDS011;46836;48.388;16.210;2023-02-11T07:21:08;40.53;;;19.08;;
45684;SDS011;46836;48.388;16.210;2023-02-11T07:23:37;37.05;;;17.90;;
45684;SDS011;46836;48.388;16.210;2023-02-11T07:26:06;35.03;;;17.38;;
45684;SDS011;46836;48.388;16.210;2023-02-11T07:28:36;37.17;;;18.92;;
45684;SDS011;46836;48.388;16.210;2023-02-11T07:31:05;32.25;;;16.73;;
45684;SDS011;46836;48.388;16.210;2023-02-11T07:33:34;37.58;;;18.17;;
45684;SDS011;46836;48.388;16.210;2023-02-11T07:36:02;44.35;;;19.65;;
45684;SDS011;46836;48.388;16.210;2023-02-11T07:38:32;35.25;;;17.70;;
45684;SDS011;46836;48.388;16.210;2023-02-11T07:41:05;36.25;;;19.27;;
45684;SDS011;46836;48.388;16.210;2023-02-11T07:43:34;32.58;;;18.17;;
45684;SDS011;46836;48.388;16.210;2023-02-11T07:46:07;36.08;;;19.80;;
45684;SDS011;46836;48.388;16.210;2023-02-11T07:48:36;36.25;;;18.42;;
45684;SDS011;46836;48.388;16.210;2023-02-11T07:51:08;30.88;;;17.27;;
45684;SDS011;46836;48.388;16.210;2023-02-11T07:53:43;33.60;;;18.20;;
45684;SDS011;46836;48.388;16.210;2023-02-11T07:56:11;33.75;;;17.83;;
45684;SDS011;46836;48.388;16.210;2023-02-11T07:58:40;29.52;;;18.00;;
45684;SDS011;46836;48.388;16.210;2023-02-11T08:01:13;33.70;;;17.95;;
45684;SDS011;46836;48.388;16.210;2023-02-11T08:03:42;34.78;;;18.00;;
45684;SDS011;46836;48.388;16.210;2023-02-11T08:06:14;30.40;;;18.58;;
45684;SDS011;46836;48.388;16.210;2023-02-11T08:08:42;37.15;;;18.33;;
45684;SDS011;46836;48.388;16.210;2023-02-11T08:11:14;33.53;;;17.33;;
45684;SDS011;46836;48.388;16.210;2023-02-11T08:13:52;36.65;;;19.33;;
45684;SDS011;46836;48.388;16.210;2023-02-11T08:16:24;31.77;;;17.90;;
45684;SDS011;46836;48.388;16.210;2023-02-11T08:19:04;29.10;;;16.55;;
45684;SDS011;46836;48.388;16.210;2023-02-11T08:21:33;33.17;;;18.17;;
45684;SDS011;46836;48.388;16.210;2023-02-11T08:24:00;39.13;;;18.90;;
45684;SDS011;46836;48.388;16.210;2023-02-11T08:26:29;33.47;;;18.55;;
45684;SDS011;46836;48.388;16.210;2023-02-11T08:29:01;30.73;;;17.08;;
45684;SDS011;46836;48.388;16.210;2023-02-11T08:31:33;31.38;;;18.45;;
45684;SDS011;46836;48.388;16.210;2023-02-11T08:34:02;40.22;;;18.67;;
45684;SDS011;46836;48.388;16.210;2023-02-11T08:36:31;35.35;;;18.27;;
45684;SDS011;46836;48.388;16.210;2023-02-11T08:39:02;28.20;;;17.38;;
45684;SDS011;46836;48.388;16.210;2023-02-11T08:41:49;32.88;;;18.52;;
45684;SDS011;46836;48.388;16.210;2023-02-11T08:44:18;33.30;;;17.88;;
45684;SDS011;46836;48.388;16.210;2023-02-11T08:46:47;29.60;;;17.27;;
45684;SDS011;46836;48.388;16.210;2023-02-11T08:49:15;36.20;;;18.13;;
45684;SDS011;46836;48.388;16.210;2023-02-11T08:51:44;31.15;;;17.13;;
45684;SDS011;46836;48.388;16.210;2023-02-11T08:54:12;31.88;;;17.60;;
45684;SDS011;46836;48.388;16.210;2023-02-11T08:56:39;28.45;;;16.42;;
45684;SDS011;46836;48.388;16.210;2023-02-11T08:59:07;36.10;;;17.80;;
45684;SDS011;46836;48.388;16.210;2023-02-11T09:01:36;30.25;;;16.95;;
45684;SDS011;46836;48.388;16.210;2023-02-11T09:04:03;34.47;;;17.63;;
45684;SDS011;46836;48.388;16.210;2023-02-11T09:06:31;30.20;;;16.45;;
45684;SDS011;46836;48.388;16.210;2023-02-11T09:08:58;30.23;;;17.20;;
45684;SDS011;46836;48.388;16.210;2023-02-11T09:11:29;31.33;;;17.27;;
45684;SDS011;46836;48.388;16.210;2023-02-11T09:14:01;29.40;;;16.02;;
45684;SDS011;46836;48.388;16.210;2023-02-11T09:16:31;30.77;;;17.55;;
45684;SDS011;46836;48.388;16.210;2023-02-11T09:19:00;26.63;;;14.98;;
45684;SDS011;46836;48.388;16.210;2023-02-11T09:21:29;27.13;;;15.98;;
45684;SDS011;46836;48.388;16.210;2023-02-11T09:23:56;25.70;;;15.50;;
45684;SDS011;46836;48.388;16.210;2023-02-11T09:26:28;27.58;;;15.70;;
45684;SDS011;46836;48.388;16.210;2023-02-11T09:28:57;26.92;;;15.25;;
45684;SDS011;46836;48.388;16.210;2023-02-11T09:31:26;28.63;;;15.90;;
45684;SDS011;46836;48.388;16.210;2023-02-11T09:33:56;27.27;;;14.88;;
45684;SDS011;46836;48.388;16.210;2023-02-11T09:36:29;26.83;;;15.60;;
45684;SDS011;46836;48.388;16.210;2023-02-11T09:38:59;27.67;;;13.82;;
45684;SDS011;46836;48.388;16.210;2023-02-11T09:44:07;23.15;;;13.85;;
45684;SDS011;46836;48.388;16.210;2023-02-11T09:46:51;24.15;;;13.40;;
45684;SDS011;46836;48.388;16.210;2023-02-11T09:49:25;21.05;;;12.25;;
45684;SDS011;46836;48.388;16.210;2023-02-11T09:52:55;28.23;;;15.02;;
45684;SDS011;46836;48.388;16.210;2023-02-11T09:55:22;24.90;;;13.68;;
45684;SDS011;46836;48.388;16.210;2023-02-11T09:57:56;22.88;;;14.55;;
45684;SDS011;46836;48.388;16.210;2023-02-11T10:00:27;26.23;;;15.13;;
45684;SDS011;46836;48.388;16.210;2023-02-11T10:03:05;25.90;;;15.10;;
45684;SDS011;46836;48.388;16.210;2023-02-11T10:08:19;25.33;;;14.18;;
45684;SDS011;46836;48.388;16.210;2023-02-11T10:11:15;30.63;;;14.07;;
45684;SDS011;46836;48.388;16.210;2023-02-11T10:14:07;25.48;;;14.00;;
45684;SDS011;46836;48.388;16.210;2023-02-11T10:19:56;28.02;;;15.27;;
45684;SDS011;46836;48.388;16.210;2023-02-11T10:23:38;29.13;;;14.20;;
45684;SDS011;46836;48.388;16.210;2023-02-11T10:25:50;25.55;;;13.63;;
45684;SDS011;46836;48.388;16.210;2023-02-11T10:28:20;26.55;;;15.15;;
45684;SDS011;46836;48.388;16.210;2023-02-11T10:33:26;28.50;;;15.23;;
45684;SDS011;46836;48.388;16.210;2023-02-11T10:35:58;28.25;;;12.85;;
45684;SDS011;46836;48.388;16.210;2023-02-11T10:38:26;24.10;;;13.65;;
45684;SDS011;46836;48.388;16.210;2023-02-11T10:40:53;23.73;;;14.43;;
45684;SDS011;46836;48.388;16.210;2023-02-11T10:43:23;22.58;;;14.32;;
45684;SDS011;46836;48.388;16.210;2023-02-11T10:45:54;23.42;;;13.82;;
45684;SDS011;46836;48.388;16.210;2023-02-11T10:48:35;24.65;;;14.95;;
45684;SDS011;46836;48.388;16.210;2023-02-11T10:53:45;26.35;;;14.35;;
45684;SDS011;46836;48.388;16.210;2023-02-11T10:56:19;23.77;;;15.20;;
45684;SDS011;46836;48.388;16.210;2023-02-11T10:58:53;25.50;;;14.95;;
45684;SDS011;46836;48.388;16.210;2023-02-11T11:01:39;25.42;;;15.38;;
45684;SDS011;46836;48.388;16.210;2023-02-11T11:07:01;24.35;;;15.57;;
45684;SDS011;46836;48.388;16.210;2023-02-11T11:09:50;23.27;;;13.88;;
45684;SDS011;46836;48.388;16.210;2023-02-11T11:17:36;24.75;;;15.60;;
45684;SDS011;46836;48.388;16.210;2023-02-11T11:20:24;27.98;;;16.15;;
45684;SDS011;46836;48.388;16.210;2023-02-11T11:23:08;24.77;;;15.30;;
45684;SDS011;46836;48.388;16.210;2023-02-11T11:25:45;25.30;;;17.30;;
45684;SDS011;46836;48.388;16.210;2023-02-11T11:28:27;24.30;;;15.07;;
45684;SDS011;46836;48.388;16.210;2023-02-11T11:30:56;29.20;;;17.48;;
45684;SDS011;46836;48.388;16.210;2023-02-11T11:33:30;24.08;;;14.68;;
45684;SDS011;46836;48.388;16.210;2023-02-11T11:38:28;24.98;;;15.52;;
45684;SDS011;46836;48.388;16.210;2023-02-11T11:49:46;21.85;;;14.57;;
45684;SDS011;46836;48.388;16.210;2023-02-11T11:55:27;26.95;;;15.57;;
45684;SDS011;46836;48.388;16.210;2023-02-11T11:57:49;23.85;;;15.10;;
45684;SDS011;46836;48.388;16.210;2023-02-11T12:00:20;24.58;;;14.27;;
45684;SDS011;46836;48.388;16.210;2023-02-11T12:03:12;22.70;;;14.18;;
45684;SDS011;46836;48.388;16.210;2023-02-11T12:11:18;24.20;;;14.45;;
45684;SDS011;46836;48.388;16.210;2023-02-11T12:14:07;25.65;;;14.40;;
45684;SDS011;46836;48.388;16.210;2023-02-11T12:22:09;21.73;;;14.30;;
45684;SDS011;46836;48.388;16.210;2023-02-11T12:30:27;21.10;;;12.90;;
45684;SDS011;46836;48.388;16.210;2023-02-11T12:35:58;24.98;;;14.45;;
45684;SDS011;46836;48.388;16.210;2023-02-11T12:46:58;28.58;;;16.85;;
45684;SDS011;46836;48.388;16.210;2023-02-11T12:55:27;23.15;;;13.48;;
45684;SDS011;46836;48.388;16.210;2023-02-11T12:58:02;26.42;;;15.13;;
45684;SDS011;46836;48.388;16.210;2023-02-11T13:00:44;24.15;;;14.82;;
45684;SDS011;46836;48.388;16.210;2023-02-11T13:03:27;28.20;;;14.55;;
45684;SDS011;46836;48.388;16.210;2023-02-11T13:06:13;21.80;;;13.60;;
45684;SDS011;46836;48.388;16.210;2023-02-11T13:08:48;25.42;;;14.63;;
45684;SDS011;46836;48.388;16.210;2023-02-11T13:11:23;29.17;;;14.68;;
45684;SDS011;46836;48.388;16.210;2023-02-11T13:13:55;26.63;;;14.95;;
45684;SDS011;46836;48.388;16.210;2023-02-11T13:16:40;30.13;;;14.48;;
45684;SDS011;46836;48.388;16.210;2023-02-11T13:24:50;27.00;;;15.07;;
45684;SDS011;46836;48.388;16.210;2023-02-11T13:27:36;23.92;;;14.63;;
45684;SDS011;46836;48.388;16.210;2023-02-11T13:35:46;21.42;;;13.55;;
45684;SDS011;46836;48.388;16.210;2023-02-11T13:38:34;21.48;;;14.18;;
45684;SDS011;46836;48.388;16.210;2023-02-11T13:43:32;22.42;;;13.48;;
45684;SDS011;46836;48.388;16.210;2023-02-11T13:46:03;20.05;;;13.55;;
45684;SDS011;46836;48.388;16.210;2023-02-11T13:48:36;23.67;;;13.65;;
45684;SDS011;46836;48.388;16.210;2023-02-11T13:51:09;25.63;;;13.30;;
45684;SDS011;46836;48.388;16.210;2023-02-11T13:53:46;24.27;;;14.23;;
45684;SDS011;46836;48.388;16.210;2023-02-11T13:58:50;24.05;;;13.27;;
45684;SDS011;46836;48.388;16.210;2023-02-11T14:04:17;24.33;;;14.27;;
45684;SDS011;46836;48.388;16.210;2023-02-11T14:13:18;21.42;;;12.27;;
45684;SDS011;46836;48.388;16.210;2023-02-11T14:21:21;22.30;;;11.32;;
45684;SDS011;46836;48.388;16.210;2023-02-11T14:26:45;18.98;;;11.48;;
45684;SDS011;46836;48.388;16.210;2023-02-11T14:29:30;20.83;;;11.48;;
45684;SDS011;46836;48.388;16.210;2023-02-11T14:43:32;18.77;;;11.13;;
45684;SDS011;46836;48.388;16.210;2023-02-11T14:46:11;19.08;;;10.85;;
45684;SDS011;46836;48.388;16.210;2023-02-11T14:48:42;23.30;;;9.60;;
45684;SDS011;46836;48.388;16.210;2023-02-11T14:51:18;19.27;;;11.10;;
45684;SDS011;46836;48.388;16.210;2023-02-11T14:53:49;18.15;;;10.63;;
45684;SDS011;46836;48.388;16.210;2023-02-11T14:56:24;16.98;;;10.25;;
45684;SDS011;46836;48.388;16.210;2023-02-11T14:58:57;16.08;;;10.35;;
45684;SDS011;46836;48.388;16.210;2023-02-11T15:04:02;14.15;;;9.10;;
45684;SDS011;46836;48.388;16.210;2023-02-11T15:06:31;13.75;;;9.95;;
45684;SDS011;46836;48.388;16.210;2023-02-11T15:09:47;15.68;;;9.80;;
45684;SDS011;46836;48.388;16.210;2023-02-11T15:12:25;16.10;;;9.82;;
45684;SDS011;46836;48.388;16.210;2023-02-11T15:14:55;16.58;;;10.25;;
45684;SDS011;46836;48.388;16.210;2023-02-11T15:17:27;15.88;;;10.00;;
45684;SDS011;46836;48.388;16.210;2023-02-11T15:19:59;17.35;;;10.35;;
45684;SDS011;46836;48.388;16.210;2023-02-11T15:22:28;20.27;;;10.55;;
45684;SDS011;46836;48.388;16.210;2023-02-11T15:25:08;15.15;;;10.10;;
45684;SDS011;46836;48.388;16.210;2023-02-11T15:27:38;14.35;;;9.98;;
45684;SDS011;46836;48.388;16.210;2023-02-11T15:32:51;19.52;;;10.55;;
45684;SDS011;46836;48.388;16.210;2023-02-11T15:35:30;17.10;;;10.23;;
45684;SDS011;46836;48.388;16.210;2023-02-11T15:38:03;16.08;;;10.18;;
45684;SDS011;46836;48.388;16.210;2023-02-11T15:40:32;13.25;;;9.00;;
45684;SDS011;46836;48.388;16.210;2023-02-11T15:43:07;17.05;;;10.45;;
45684;SDS011;46836;48.388;16.210;2023-02-11T15:48:36;14.07;;;9.73;;
45684;SDS011;46836;48.388;16.210;2023-02-11T15:51:32;16.85;;;10.07;;
45684;SDS011;46836;48.388;16.210;2023-02-11T15:54:03;14.65;;;9.85;;
45684;SDS011;46836;48.388;16.210;2023-02-11T15:56:43;15.02;;;9.20;;
45684;SDS011;46836;48.388;16.210;2023-02-11T15:59:16;15.48;;;9.73;;
45684;SDS011;46836;48.388;16.210;2023-02-11T16:01:46;18.45;;;10.88;;
45684;SDS011;46836;48.388;16.210;2023-02-11T16:04:16;16.42;;;9.85;;
45684;SDS011;46836;48.388;16.210;2023-02-11T16:06:46;16.88;;;10.45;;
45684;SDS011;46836;48.388;16.210;2023-02-11T16:14:20;15.75;;;10.63;;
45684;SDS011;46836;48.388;16.210;2023-02-11T16:16:58;17.13;;;10.98;;
45684;SDS011;46836;48.388;16.210;2023-02-11T16:19:29;20.45;;;11.80;;
45684;SDS011;46836;48.388;16.210;2023-02-11T16:22:00;15.30;;;10.98;;
45684;SDS011;46836;48.388;16.210;2023-02-11T16:24:35;16.35;;;10.65;;
45684;SDS011;46836;48.388;16.210;2023-02-11T16:30:04;19.65;;;11.25;;
45684;SDS011;46836;48.388;16.210;2023-02-11T16:32:49;16.98;;;10.50;;
45684;SDS011;46836;48.388;16.210;2023-02-11T16:35:21;19.40;;;11.43;;
45684;SDS011;46836;48.388;16.210;2023-02-11T16:37:49;17.33;;;10.27;;
45684;SDS011;46836;48.388;16.210;2023-02-11T16:40:17;22.80;;;13.95;;
45684;SDS011;46836;48.388;16.210;2023-02-11T16:42:45;23.20;;;13.52;;
45684;SDS011;46836;48.388;16.210;2023-02-11T16:45:13;22.35;;;12.68;;
45684;SDS011;46836;48.388;16.210;2023-02-11T16:47:41;20.38;;;13.25;;
45684;SDS011;46836;48.388;16.210;2023-02-11T16:50:10;20.90;;;12.98;;
45684;SDS011;46836;48.388;16.210;2023-02-11T16:52:46;22.05;;;13.05;;
45684;SDS011;46836;48.388;16.210;2023-02-11T16:55:14;18.98;;;12.15;;
45684;SDS011;46836;48.388;16.210;2023-02-11T16:57:42;23.23;;;14.45;;
45684;SDS011;46836;48.388;16.210;2023-02-11T17:00:10;22.98;;;13.70;;
45684;SDS011;46836;48.388;16.210;2023-02-11T17:02:41;19.27;;;12.25;;
45684;SDS011;46836;48.388;16.210;2023-02-11T17:05:14;19.63;;;11.25;;
45684;SDS011;46836;48.388;16.210;2023-02-11T17:07:45;16.77;;;11.70;;
45684;SDS011;46836;48.388;16.210;2023-02-11T17:10:16;19.17;;;11.32;;
45684;SDS011;46836;48.388;16.210;2023-02-11T17:12:46;23.85;;;13.25;;
45684;SDS011;46836;48.388;16.210;2023-02-11T17:15:15;17.17;;;10.95;;
45684;SDS011;46836;48.388;16.210;2023-02-11T17:17:44;20.17;;;11.70;;
45684;SDS011;46836;48.388;16.210;2023-02-11T17:20:13;21.15;;;11.63;;
45684;SDS011;46836;48.388;16.210;2023-02-11T17:22:41;19.45;;;12.27;;
45684;SDS011;46836;48.388;16.210;2023-02-11T17:25:09;17.48;;;12.23;;
45684;SDS011;46836;48.388;16.210;2023-02-11T17:27:38;19.30;;;11.18;;
45684;SDS011;46836;48.388;16.210;2023-02-11T17:30:08;21.63;;;11.85;;